Time;durP1;ratioP1;P1;durP2;ratioP2;P2;SDS_P1;SDS_P2;PMS_P1;PMS_P2;Temp;Humidity;BMP_temperature;BMP_pressure;BME280_temperature;BME280_humidity;BME280_pressure;Samples;Min_cycle;Max_cycle;Signal;HPM_P1;HPM_P2
2022/09/17 00:01:19;;;;;;;13.15;9.02;;;;;;;16.26;59.47;97685.00;4920104;29;20482;-70
2022/09/17 00:03:48;;;;;;;17.13;10.10;;;;;;;16.22;59.76;97679.31;4905239;29;20103;-70
2022/09/17 00:06:15;;;;;;;15.50;9.30;;;;;;;15.98;59.70;97685.00;4936046;29;20050;-70
2022/09/17 00:08:41;;;;;;;16.60;10.05;;;;;;;15.94;59.66;97679.34;4905899;29;20058;-70
2022/09/17 00:11:12;;;;;;;15.93;10.40;;;;;;;16.11;59.67;97684.75;4921279;29;20055;-71
2022/09/17 00:13:39;;;;;;;16.92;10.05;;;;;;;15.92;59.94;97686.78;4937711;29;20145;-70
2022/09/17 00:16:05;;;;;;;14.07;10.10;;;;;;;15.98;60.22;97693.03;4906214;29;20040;-70
2022/09/17 00:18:35;;;;;;;17.98;10.80;;;;;;;15.90;59.84;97702.28;4906108;29;20043;-70
2022/09/17 00:21:02;;;;;;;16.20;10.65;;;;;;;15.95;59.83;97697.03;4921606;29;20138;-73
2022/09/17 00:23:30;;;;;;;17.45;10.18;;;;;;;15.85;59.88;97704.06;4922090;29;20051;-70
2022/09/17 00:25:57;;;;;;;16.67;10.68;;;;;;;15.81;59.74;97706.38;4905441;29;20046;-71
2022/09/17 00:28:24;;;;;;;14.77;9.57;;;;;;;15.77;59.89;97699.06;4921357;29;20055;-71
2022/09/17 00:30:49;;;;;;;14.52;9.20;;;;;;;15.73;59.89;97698.72;4905234;29;20039;-69
2022/09/17 00:33:18;;;;;;;15.02;9.60;;;;;;;15.90;59.57;97710.31;4920947;29;20058;-70
2022/09/17 00:35:57;;;;;;;12.55;8.85;;;;;;;15.68;59.78;97705.84;4905490;29;20492;-70
2022/09/17 00:38:23;;;;;;;15.82;9.25;;;;;;;15.56;60.10;97703.19;4937051;28;20524;-71
2022/09/17 00:40:48;;;;;;;12.98;8.82;;;;;;;15.58;60.06;97711.81;4905558;29;20047;-70
2022/09/17 00:43:37;;;;;;;13.63;8.57;;;;;;;15.75;59.90;97707.34;4921788;29;20067;-69
2022/09/17 00:46:05;;;;;;;15.85;9.23;;;;;;;15.66;60.19;97713.28;4922174;29;20448;-72
2022/09/17 00:48:31;;;;;;;19.08;9.82;;;;;;;15.53;59.82;97711.69;4938142;29;20055;-73
2022/09/17 00:51:00;;;;;;;18.42;10.27;;;;;;;15.69;60.06;97719.00;4907569;29;20433;-69
2022/09/17 00:53:27;;;;;;;16.48;10.82;;;;;;;15.52;60.24;97710.06;4938301;29;20138;-69
2022/09/17 00:56:20;;;;;;;15.25;10.13;;;;;;;15.67;59.82;97714.94;4953417;28;20128;-69
2022/09/17 00:58:45;;;;;;;13.60;10.30;;;;;;;15.38;60.45;97722.06;4937311;28;20079;-70
2022/09/17 01:01:11;;;;;;;14.45;10.00;;;;;;;15.21;60.82;97721.94;4907035;28;20137;-69
2022/09/17 01:03:37;;;;;;;15.75;9.77;;;;;;;15.22;60.60;97718.22;4907401;29;20130;-70
2022/09/17 01:06:13;;;;;;;18.20;10.23;;;;;;;15.53;60.02;97722.38;4907161;29;20043;-72
2022/09/17 01:09:03;;;;;;;14.68;9.52;;;;;;;15.54;60.17;97718.69;4955895;28;20050;-70
2022/09/17 01:12:11;;;;;;;15.90;9.65;;;;;;;15.58;59.84;97717.16;4923206;29;20137;-69
2022/09/17 01:15:04;;;;;;;16.60;8.75;;;;;;;15.49;59.91;97723.09;4921833;29;20145;-70
2022/09/17 01:17:42;;;;;;;19.48;9.52;;;;;;;15.37;60.15;97719.59;4922903;29;20047;-69
2022/09/17 01:20:17;;;;;;;14.90;9.05;;;;;;;15.15;60.12;97722.06;4922804;29;20073;-69
2022/09/17 01:22:58;;;;;;;17.83;9.65;;;;;;;15.41;60.04;97728.84;4937424;29;20133;-68
2022/09/17 01:25:27;;;;;;;;;;;;;;;15.46;59.47;97723.56;4922766;28;20047;-68
2022/09/17 01:28:17;;;;;;;14.40;8.65;;;;;;;15.36;59.67;97724.13;4954647;28;19928;-68
2022/09/17 01:31:14;;;;;;;11.85;8.73;;;;;;;15.15;60.40;97730.09;4921369;29;20043;-69
2022/09/17 01:33:49;;;;;;;20.92;9.07;;;;;;;15.16;60.31;97739.72;4937512;28;20047;-69
2022/09/17 01:36:33;;;;;;;18.77;9.38;;;;;;;15.06;60.54;97742.16;4920806;28;20055;-69
2022/09/17 01:39:29;;;;;;;13.63;8.65;;;;;;;15.17;59.98;97741.38;4936943;29;20043;-69
2022/09/17 01:42:06;;;;;;;16.65;9.35;;;;;;;15.10;60.25;97736.13;4904928;29;20162;-69
2022/09/17 01:44:54;;;;;;;17.05;9.25;;;;;;;15.10;60.05;97738.81;4921283;28;20398;-69
2022/09/17 01:47:32;;;;;;;14.65;8.63;;;;;;;15.01;60.37;97740.19;4936477;28;20401;-69
2022/09/17 01:50:08;;;;;;;13.27;8.48;;;;;;;14.94;60.49;97742.19;4905178;29;20110;-69
2022/09/17 01:52:35;;;;;;;14.35;8.48;;;;;;;14.87;60.41;97744.13;4922067;29;20042;-69
2022/09/17 01:55:04;;;;;;;15.43;9.00;;;;;;;14.84;60.55;97741.94;4938061;29;20138;-70
2022/09/17 01:57:39;;;;;;;17.08;10.00;;;;;;;14.98;60.13;97742.50;4905338;29;20090;-70
2022/09/17 02:00:14;;;;;;;15.98;8.82;;;;;;;14.72;60.03;97710.88;4921175;29;20062;-69
2022/09/17 02:03:02;;;;;;;20.73;9.98;;;;;;;15.01;59.81;97742.03;4952423;28;20137;-69
2022/09/17 02:05:44;;;;;;;13.90;8.60;;;;;;;14.92;59.86;97746.09;4920607;28;20046;-69
2022/09/17 02:08:12;;;;;;;15.18;8.45;;;;;;;14.75;60.51;97761.19;4955571;28;20047;-69
2022/09/17 02:10:43;;;;;;;13.77;9.25;;;;;;;14.77;60.29;97756.44;4924354;29;20047;-69
2022/09/17 02:13:33;;;;;;;13.10;9.05;;;;;;;14.82;60.27;97765.38;4925030;29;20047;-70
2022/09/17 02:16:10;;;;;;;15.18;8.13;;;;;;;14.76;60.74;97765.50;4908735;28;20522;-69
2022/09/17 02:18:48;;;;;;;13.32;8.38;;;;;;;14.77;60.46;97773.31;4925671;29;20101;-73
2022/09/17 02:21:27;;;;;;;12.63;9.07;;;;;;;14.67;60.76;97777.53;4908221;28;20154;-70
2022/09/17 02:23:59;;;;;;;12.85;8.50;;;;;;;14.71;60.33;97770.72;4908236;28;20512;-70
2022/09/17 02:26:26;;;;;;;12.75;8.40;;;;;;;14.53;60.63;97774.25;4957615;28;20157;-69
2022/09/17 02:28:56;;;;;;;14.43;8.32;;;;;;;14.44;61.01;97772.13;4943169;28;20104;-72
2022/09/17 02:31:22;;;;;;;13.77;7.85;;;;;;;14.32;60.82;97766.78;4943312;28;20146;-70
2022/09/17 02:33:51;;;;;;;16.33;7.78;;;;;;;14.60;60.51;97768.84;4911601;28;20149;-70
2022/09/17 02:36:18;;;;;;;11.90;8.00;;;;;;;14.48;60.74;97768.00;4943323;28;20495;-70
2022/09/17 02:38:45;;;;;;;12.10;8.57;;;;;;;14.44;60.57;97764.13;4912273;28;20401;-70
2022/09/17 02:41:18;;;;;;;14.73;7.95;;;;;;;14.58;60.75;97768.22;4927492;28;20053;-70
2022/09/17 02:44:10;;;;;;;12.77;7.55;;;;;;;14.57;60.17;97767.44;4927146;28;20053;-70
2022/09/17 02:47:01;;;;;;;14.30;8.68;;;;;;;14.63;59.90;97774.53;4927105;28;20045;-70
2022/09/17 02:49:53;;;;;;;14.43;8.98;;;;;;;14.59;60.38;97772.56;4927096;28;20105;-69
2022/09/17 02:52:43;;;;;;;11.57;8.05;;;;;;;14.60;60.19;97777.66;4911346;28;20043;-70
2022/09/17 02:55:42;;;;;;;12.50;7.55;;;;;;;14.29;60.54;97750.38;4926716;28;20047;-71
2022/09/17 02:58:16;;;;;;;10.50;7.53;;;;;;;14.43;60.63;97783.88;4909236;28;20059;-70
2022/09/17 03:00:43;;;;;;;12.60;7.55;;;;;;;14.24;61.29;97776.94;4958473;28;20085;-70
2022/09/17 03:03:20;;;;;;;9.43;7.25;;;;;;;14.49;60.90;97777.63;4942869;28;20049;-69
2022/09/17 03:05:47;;;;;;;13.65;7.97;;;;;;;14.26;60.90;97785.53;4926593;28;20049;-70
2022/09/17 03:08:15;;;;;;;12.98;8.25;;;;;;;14.25;60.56;97767.91;4910792;28;20043;-69
2022/09/17 03:10:42;;;;;;;15.45;9.15;;;;;;;14.50;59.76;97788.06;4958478;28;20051;-69
2022/09/17 03:13:08;;;;;;;13.88;9.15;;;;;;;14.67;59.34;97798.91;4926409;28;20059;-70
2022/09/17 03:15:36;;;;;;;13.27;9.55;;;;;;;14.70;59.02;97804.63;4942069;28;20469;-69
2022/09/17 03:18:02;;;;;;;12.57;8.95;;;;;;;14.19;60.11;97798.94;4925538;28;20050;-70
2022/09/17 03:20:27;;;;;;;14.80;10.10;;;;;;;14.12;60.76;97803.56;4926924;28;20102;-69
2022/09/17 03:22:53;;;;;;;21.50;12.15;;;;;;;14.06;60.99;97812.47;4926421;28;20050;-69
2022/09/17 03:25:19;;;;;;;31.77;17.33;;;;;;;13.89;61.23;97789.28;4910593;28;20047;-68
2022/09/17 03:27:47;;;;;;;39.60;24.88;;;;;;;14.08;61.19;97814.91;4910744;28;20066;-68
2022/09/17 03:30:12;;;;;;;39.20;23.95;;;;;;;14.09;61.14;97814.69;4958273;28;20446;-70
2022/09/17 03:32:38;;;;;;;29.60;17.95;;;;;;;14.10;61.10;97810.19;4911514;28;20153;-68
2022/09/17 03:35:04;;;;;;;26.55;15.65;;;;;;;14.15;60.95;97812.97;4910313;28;20043;-67
2022/09/17 03:37:30;;;;;;;19.17;13.32;;;;;;;14.00;61.05;97810.69;4910088;28;20543;-66
2022/09/17 03:39:56;;;;;;;20.52;13.77;;;;;;;14.07;61.02;97819.44;4910048;28;20043;-68
2022/09/17 03:42:22;;;;;;;23.38;12.18;;;;;;;14.08;61.35;97820.25;4909744;28;20197;-67
2022/09/17 03:44:47;;;;;;;20.27;12.52;;;;;;;14.16;60.81;97826.09;4941815;28;20454;-68
2022/09/17 03:47:15;;;;;;;22.15;12.40;;;;;;;14.19;60.97;97827.53;4910319;28;20426;-70
2022/09/17 03:49:41;;;;;;;22.77;12.40;;;;;;;14.23;60.74;97826.00;4942958;28;20054;-71
2022/09/17 03:52:09;;;;;;;20.63;11.75;;;;;;;14.20;60.77;97829.97;4943134;28;20038;-68
2022/09/17 03:54:35;;;;;;;20.65;10.73;;;;;;;14.19;60.65;97824.84;4911244;28;20057;-67
2022/09/17 03:57:01;;;;;;;18.80;10.02;;;;;;;14.24;60.58;97831.16;4911386;28;20474;-67
2022/09/17 03:59:28;;;;;;;18.10;10.35;;;;;;;14.21;60.52;97830.75;4942014;28;20070;-69
2022/09/17 04:01:54;;;;;;;18.10;10.48;;;;;;;14.18;60.78;97836.53;4909910;28;20089;-68
2022/09/17 04:04:22;;;;;;;21.60;11.25;;;;;;;14.05;60.78;97831.38;4925655;28;20074;-67
2022/09/17 04:06:48;;;;;;;16.02;10.50;;;;;;;14.08;60.93;97830.94;4941357;28;20046;-65
2022/09/17 04:09:13;;;;;;;27.20;11.68;;;;;;;14.14;60.92;97844.22;4977261;28;20366;-70
2022/09/17 04:11:39;;;;;;;21.98;11.32;;;;;;;14.08;60.74;97839.78;4936881;28;20364;-67
2022/09/17 04:14:08;;;;;;;21.35;11.20;;;;;;;14.32;60.77;97838.03;4913480;28;20064;-68
2022/09/17 04:16:34;;;;;;;17.88;11.32;;;;;;;14.19;60.84;97855.00;4962567;28;20149;-68
2022/09/17 04:19:00;;;;;;;20.50;10.55;;;;;;;14.05;60.78;97852.72;4944292;28;20158;-68
2022/09/17 04:21:25;;;;;;;20.63;11.65;;;;;;;14.12;60.63;97856.97;4961463;28;20381;-67
2022/09/17 04:23:51;;;;;;;20.98;11.60;;;;;;;13.97;60.99;97848.50;4946191;28;20058;-67
2022/09/17 04:26:17;;;;;;;17.45;11.65;;;;;;;13.96;60.80;97856.75;4946552;28;20042;-67
2022/09/17 04:28:43;;;;;;;19.75;12.60;;;;;;;14.02;60.79;97862.00;4929827;28;20049;-72
2022/09/17 04:31:09;;;;;;;18.52;11.88;;;;;;;13.97;60.80;97858.38;4949904;28;20094;-67
2022/09/17 04:33:36;;;;;;;22.92;13.32;;;;;;;13.95;61.00;97853.25;4965425;28;20169;-68
2022/09/17 04:36:02;;;;;;;18.92;11.82;;;;;;;14.05;60.84;97861.56;4936305;28;20050;-67
2022/09/17 04:38:28;;;;;;;22.27;12.10;;;;;;;14.00;60.95;97849.91;4948855;28;20053;-67
2022/09/17 04:40:56;;;;;;;18.08;12.32;;;;;;;14.00;60.81;97864.09;4934168;28;20704;-68
2022/09/17 04:43:22;;;;;;;20.25;12.40;;;;;;;14.07;60.77;97869.34;4933464;28;20053;-66
2022/09/17 04:45:49;;;;;;;18.85;12.10;;;;;;;14.03;60.69;97862.81;4926506;28;20042;-68
2022/09/17 04:48:16;;;;;;;20.02;11.93;;;;;;;14.10;60.74;97869.69;4932035;28;20045;-69
2022/09/17 04:50:42;;;;;;;19.08;11.07;;;;;;;14.11;60.58;97881.22;4964153;28;20051;-67
2022/09/17 04:53:08;;;;;;;21.40;12.07;;;;;;;14.06;60.44;97881.06;4935199;28;20126;-67
2022/09/17 04:55:34;;;;;;;16.50;10.70;;;;;;;14.18;60.41;97869.41;4932515;28;20049;-67
2022/09/17 04:58:00;;;;;;;17.08;10.95;;;;;;;14.24;59.88;97875.72;4926307;28;20133;-66
2022/09/17 05:00:26;;;;;;;16.42;10.68;;;;;;;14.21;60.04;97878.81;4950001;28;20444;-67
2022/09/17 05:02:53;;;;;;;19.33;11.27;;;;;;;14.41;59.93;97866.91;4918053;28;20404;-68
2022/09/17 05:05:19;;;;;;;19.60;11.75;;;;;;;14.40;59.90;97873.28;4949896;28;20075;-67
2022/09/17 05:07:45;;;;;;;18.42;12.00;;;;;;;14.49;59.67;97879.13;4955979;28;20049;-69
2022/09/17 05:10:13;;;;;;;18.80;11.73;;;;;;;14.59;59.61;97879.41;4930030;28;20066;-67
2022/09/17 05:12:39;;;;;;;15.55;11.93;;;;;;;14.58;59.65;97881.25;4950882;28;20054;-67
2022/09/17 05:15:06;;;;;;;16.08;11.48;;;;;;;14.60;59.61;97881.03;4915832;28;20041;-67
2022/09/17 05:17:32;;;;;;;15.80;11.07;;;;;;;14.72;59.51;97885.38;4981138;28;20476;-68
2022/09/17 05:19:57;;;;;;;15.43;11.10;;;;;;;14.79;59.26;97887.97;4932306;28;20435;-67
2022/09/17 05:22:23;;;;;;;19.02;10.15;;;;;;;14.76;58.97;97883.88;4940815;28;20121;-68
2022/09/17 05:24:49;;;;;;;14.30;10.00;;;;;;;14.86;59.28;97899.38;4947358;28;20046;-67
2022/09/17 05:27:15;;;;;;;14.02;9.40;;;;;;;14.79;58.90;97877.28;4923749;28;20145;-72
2022/09/17 05:29:40;;;;;;;13.43;9.13;;;;;;;15.16;58.43;97890.28;4933180;28;20129;-74
2022/09/17 05:32:06;;;;;;;13.82;8.90;;;;;;;15.24;58.28;97900.66;4928531;28;20047;-73
2022/09/17 05:34:32;;;;;;;10.02;8.20;;;;;;;15.27;58.52;97891.34;4916569;28;20503;-73
2022/09/17 05:36:58;;;;;;;13.32;8.15;;;;;;;15.54;58.12;97911.31;4932204;28;20485;-78
2022/09/17 05:39:29;;;;;;;13.18;7.70;;;;;;;15.35;58.10;97907.06;4935847;28;20083;-78
2022/09/17 05:41:56;;;;;;;12.80;5.80;;;;;;;15.54;57.36;97910.50;4969790;28;21296;-73
2022/09/17 05:44:24;;;;;;;11.90;6.78;;;;;;;15.59;57.78;97918.66;4931993;28;20042;-76
2022/09/17 05:46:51;;;;;;;9.18;5.90;;;;;;;15.78;56.53;97918.31;4963599;28;20050;-77
2022/09/17 05:49:17;;;;;;;10.10;5.53;;;;;;;15.70;57.13;97921.31;4932131;28;20042;-78
2022/09/17 05:51:44;;;;;;;12.38;5.75;;;;;;;15.73;56.69;97925.41;4964444;28;20046;-80
2022/09/17 05:54:11;;;;;;;7.75;4.40;;;;;;;15.70;55.57;97923.22;4933523;28;20062;-74
2022/09/17 05:56:38;;;;;;;6.25;4.18;;;;;;;15.84;54.92;97932.63;4948664;28;20050;-74
2022/09/17 05:59:04;;;;;;;7.75;3.58;;;;;;;15.83;54.44;97939.03;4947930;28;20157;-77
2022/09/17 06:01:34;;;;;;;10.68;4.25;;;;;;;15.95;55.03;97921.91;4932951;28;20038;-74
2022/09/17 06:04:03;;;;;;;6.68;3.65;;;;;;;15.94;54.75;97931.00;4952084;28;20148;-75
2022/09/17 06:06:29;;;;;;;5.95;4.05;;;;;;;16.20;54.80;97925.16;4932486;28;20092;-75
2022/09/17 06:09:00;;;;;;;10.98;4.00;;;;;;;16.42;54.95;97928.84;4946566;28;20082;-75
2022/09/17 06:11:27;;;;;;;7.45;3.83;;;;;;;16.35;54.18;97933.53;4961454;28;20046;-76
2022/09/17 06:13:54;;;;;;;8.68;3.65;;;;;;;16.64;52.90;97926.38;4930017;28;20480;-76
2022/09/17 06:16:21;;;;;;;7.35;3.72;;;;;;;16.73;53.00;97935.66;4928924;28;20097;-75
2022/09/17 06:18:49;;;;;;;11.52;3.25;;;;;;;16.48;52.65;97944.00;4961705;28;20054;-78
2022/09/17 06:21:18;;;;;;;5.50;3.15;;;;;;;16.59;52.17;97940.47;4961962;28;20738;-77
2022/09/17 06:23:46;;;;;;;10.45;3.03;;;;;;;16.83;51.26;97952.78;4945920;28;20039;-80
2022/09/17 06:26:13;;;;;;;4.90;3.00;;;;;;;16.75;51.09;97933.56;4915578;28;20439;-76
2022/09/17 06:28:39;;;;;;;6.68;3.30;;;;;;;16.92;51.21;97960.44;4933132;28;20059;-77
2022/09/17 06:31:07;;;;;;;8.00;2.95;;;;;;;17.09;50.45;97942.53;4949438;28;20148;-76
2022/09/17 06:33:35;;;;;;;11.18;3.13;;;;;;;17.07;49.67;97958.06;4962975;28;20054;-76
2022/09/17 06:36:06;;;;;;;7.63;2.45;;;;;;;16.98;49.53;97905.84;4964348;28;20492;-77
2022/09/17 06:38:33;;;;;;;7.35;2.83;;;;;;;17.45;49.45;97968.97;4960915;28;20542;-77
2022/09/17 06:40:59;;;;;;;9.10;2.60;;;;;;;17.53;49.32;97961.34;4928777;28;20492;-77
2022/09/17 06:43:25;;;;;;;5.50;2.95;;;;;;;17.83;49.38;97953.78;4944738;28;20050;-77
2022/09/17 06:45:59;;;;;;;5.38;2.60;;;;;;;17.84;48.75;97941.16;4931756;28;20481;-77
2022/09/17 06:48:26;;;;;;;6.60;2.50;;;;;;;17.97;48.56;97954.25;4946888;28;20865;-78
2022/09/17 06:50:53;;;;;;;7.85;3.00;;;;;;;17.78;48.71;97934.09;4931386;28;20499;-77
2022/09/17 06:53:20;;;;;;;8.27;2.78;;;;;;;18.39;47.46;97958.13;4946701;28;20507;-77
2022/09/17 06:55:46;;;;;;;9.60;2.40;;;;;;;18.52;46.46;97979.28;4946507;28;20186;-77
2022/09/17 06:58:12;;;;;;;8.93;2.95;;;;;;;18.54;46.64;97968.28;4946717;28;20544;-78
2022/09/17 07:00:39;;;;;;;6.40;2.35;;;;;;;18.63;45.25;97972.97;4930233;28;20204;-76
2022/09/17 07:03:05;;;;;;;5.78;2.33;;;;;;;18.82;45.90;97971.59;4946349;28;20061;-77
2022/09/17 07:05:34;;;;;;;6.60;2.10;;;;;;;19.29;43.87;97974.59;4930826;28;20465;-77
2022/09/17 07:08:02;;;;;;;6.30;2.17;;;;;;;20.10;42.59;97985.00;4930561;28;20042;-77
2022/09/17 07:10:28;;;;;;;12.13;2.17;;;;;;;20.70;40.83;97971.91;4946924;28;20073;-76
2022/09/17 07:12:54;;;;;;;5.88;2.10;;;;;;;21.31;39.48;97978.38;4947001;28;20047;-77
2022/09/17 07:15:20;;;;;;;6.90;1.90;;;;;;;21.83;38.14;97995.22;4962084;28;20061;-77
2022/09/17 07:17:46;;;;;;;5.13;1.88;;;;;;;22.17;36.87;97980.06;4931462;28;20043;-77
2022/09/17 07:20:13;;;;;;;17.30;2.50;;;;;;;23.06;36.54;97994.47;4947497;28;20042;-77
2022/09/17 07:22:39;;;;;;;8.38;2.30;;;;;;;23.42;35.43;97994.34;4931120;28;20559;-77
2022/09/17 07:25:08;;;;;;;5.85;2.05;;;;;;;22.62;36.20;97982.72;4945771;28;20053;-77
2022/09/17 07:27:34;;;;;;;9.02;2.25;;;;;;;24.86;32.71;97967.84;4930820;28;20078;-77
2022/09/17 07:30:01;;;;;;;10.20;2.05;;;;;;;27.13;27.23;97978.59;4946783;28;20050;-79
2022/09/17 07:32:30;;;;;;;9.02;1.88;;;;;;;28.84;25.74;97962.44;4963182;28;20153;-80
2022/09/17 07:34:56;;;;;;;7.00;1.90;;;;;;;31.23;22.61;97934.78;4995429;28;20373;-77
2022/09/17 07:37:23;;;;;;;8.13;1.95;;;;;;;32.17;21.73;97964.25;4931079;28;20054;-77
2022/09/17 07:39:49;;;;;;;5.82;1.90;;;;;;;34.10;19.73;97954.88;4945713;28;20054;-77
2022/09/17 07:42:16;;;;;;;4.60;1.60;;;;;;;33.90;17.96;97944.88;4930288;28;20054;-82
2022/09/17 07:44:43;;;;;;;5.50;2.03;;;;;;;33.27;19.58;97953.13;4946969;28;20053;-81
2022/09/17 07:47:09;;;;;;;5.10;1.60;;;;;;;35.36;17.48;97962.91;4930667;28;20053;-76
2022/09/17 07:49:37;;;;;;;9.15;1.90;;;;;;;35.30;17.01;97956.03;4931820;28;20476;-76
2022/09/17 07:52:05;;;;;;;7.15;1.90;;;;;;;34.70;16.12;97969.50;4915802;28;20074;-78
2022/09/17 07:54:32;;;;;;;9.48;2.05;;;;;;;34.75;16.58;97944.41;4976934;28;20061;-78
2022/09/17 07:57:02;;;;;;;3.70;1.60;;;;;;;35.10;16.15;97951.63;4976810;28;20046;-78
2022/09/17 07:59:28;;;;;;;6.63;1.88;;;;;;;36.09;15.41;97953.84;4960037;28;20144;-78
2022/09/17 08:01:58;;;;;;;7.35;1.50;;;;;;;36.71;15.06;97943.19;4961006;28;20126;-77
2022/09/17 08:04:25;;;;;;;7.88;1.35;;;;;;;34.07;15.68;97927.22;4942776;28;20052;-76
2022/09/17 08:06:50;;;;;;;4.35;1.63;;;;;;;32.72;18.06;97941.88;4945401;28;20451;-76
2022/09/17 08:09:18;;;;;;;6.97;1.80;;;;;;;34.11;17.10;97945.47;4945380;28;20072;-77
2022/09/17 08:11:44;;;;;;;6.03;1.60;;;;;;;35.04;15.30;97950.31;4944747;28;20429;-77
2022/09/17 08:14:12;;;;;;;8.23;2.30;;;;;;;34.45;15.44;97954.25;4944607;28;20129;-76
2022/09/17 08:16:38;;;;;;;6.63;1.60;;;;;;;36.77;14.49;97957.53;4977097;28;20054;-77
2022/09/17 08:19:04;;;;;;;6.88;1.60;;;;;;;36.97;13.98;97967.34;4944711;28;20058;-77
2022/09/17 08:21:30;;;;;;;5.88;1.60;;;;;;;38.25;13.05;97964.09;4928888;28;20136;-78
2022/09/17 08:23:57;;;;;;;11.38;2.15;;;;;;;39.46;11.70;97955.72;4929548;28;20096;-78
2022/09/17 08:26:24;;;;;;;5.07;1.33;;;;;;;39.97;11.51;97954.41;4944724;28;20077;-79
2022/09/17 08:28:53;;;;;;;6.80;1.75;;;;;;;36.45;12.77;97945.06;4947426;28;20046;-77
2022/09/17 08:31:20;;;;;;;5.10;1.40;;;;;;;36.01;13.56;97938.28;4960822;28;20542;-77
2022/09/17 08:33:46;;;;;;;5.55;1.55;;;;;;;35.78;13.72;97941.72;4961008;28;20118;-76
2022/09/17 08:36:14;;;;;;;6.93;1.77;;;;;;;34.46;14.46;97937.34;4929327;28;20064;-78
2022/09/17 08:38:40;;;;;;;8.18;1.50;;;;;;;35.83;14.19;97959.22;4961464;28;20046;-77
2022/09/17 08:41:09;;;;;;;6.22;1.40;;;;;;;37.60;13.25;97954.50;4929431;28;20489;-77
2022/09/17 08:43:58;;;;;;;4.45;1.40;;;;;;;37.34;12.62;97957.28;4945997;28;20397;-76
2022/09/17 08:46:25;;;;;;;14.85;1.88;;;;;;;36.26;13.12;97956.16;4932639;28;20065;-77
2022/09/17 08:49:05;;;;;;;6.65;1.77;;;;;;;33.29;15.47;97964.59;4929053;28;20030;-77
2022/09/17 08:52:08;;;;;;;12.07;1.95;;;;;;;34.10;14.27;97974.19;4947556;28;20046;-77
2022/09/17 08:54:41;;;;;;;4.72;1.30;;;;;;;33.54;14.55;97942.19;4946879;28;20062;-76
2022/09/17 08:57:31;;;;;;;3.92;1.10;;;;;;;35.01;13.78;97952.97;4944160;28;20052;-78
2022/09/17 08:59:59;;;;;;;9.85;2.50;;;;;;;34.19;14.30;97935.44;4943995;28;20042;-77
2022/09/17 09:02:37;;;;;;;6.95;1.45;;;;;;;34.07;14.40;97958.31;4927962;28;20061;-76
2022/09/17 09:05:21;;;;;;;9.57;1.70;;;;;;;33.88;14.05;97960.94;4959955;28;20158;-76
2022/09/17 09:08:19;;;;;;;4.32;1.40;;;;;;;34.35;13.84;97963.03;4943909;28;20046;-76
2022/09/17 09:10:54;;;;;;;7.70;1.40;;;;;;;33.53;14.26;97961.81;4928827;28;20053;-76
2022/09/17 09:13:22;;;;;;;5.25;1.52;;;;;;;32.55;15.38;97962.13;4959476;28;20081;-77
2022/09/17 09:15:55;;;;;;;3.15;1.27;;;;;;;30.47;16.96;97946.91;4927543;28;20141;-77
2022/09/17 09:18:28;;;;;;;4.70;1.38;;;;;;;31.51;16.22;97974.34;4929149;28;20038;-77
2022/09/17 09:21:13;;;;;;;11.15;1.35;;;;;;;29.93;17.12;97984.06;4944881;28;20133;-76
2022/09/17 09:24:04;;;;;;;8.50;1.40;;;;;;;32.11;16.12;97958.19;4960047;28;20050;-76
2022/09/17 09:26:43;;;;;;;5.85;1.50;;;;;;;32.57;15.75;97971.63;4959347;28;20049;-76
2022/09/17 09:29:34;;;;;;;6.18;1.30;;;;;;;33.87;13.99;97983.28;4945963;28;20042;-76
2022/09/17 09:32:24;;;;;;;3.50;1.20;;;;;;;34.69;13.35;97963.16;4943724;28;20298;-75
2022/09/17 09:34:50;;;;;;;7.60;1.73;;;;;;;34.83;13.59;97963.53;4959080;28;20520;-77
2022/09/17 09:37:25;;;;;;;3.30;1.45;;;;;;;32.03;14.21;97963.78;4945058;28;20038;-77
2022/09/17 09:39:53;;;;;;;5.25;1.05;;;;;;;30.47;15.79;97977.06;4960459;28;20089;-77
2022/09/17 09:42:20;;;;;;;5.25;1.00;;;;;;;28.51;17.73;97963.09;4944118;28;20122;-76
2022/09/17 09:44:48;;;;;;;6.90;1.40;;;;;;;27.99;18.87;97959.22;4993255;28;20042;-76
2022/09/17 09:48:06;;;;;;;2.97;1.10;;;;;;;29.23;18.25;97967.06;4929661;28;20077;-75
2022/09/17 09:50:49;;;;;;;6.55;1.17;;;;;;;27.03;19.58;97967.91;4915528;28;20392;-77
2022/09/17 09:53:44;;;;;;;3.58;1.08;;;;;;;26.20;19.83;97952.59;4961752;28;20062;-78
2022/09/17 09:56:25;;;;;;;7.53;1.63;;;;;;;27.07;19.76;97972.47;4861969;28;20135;-79
2022/09/17 09:58:51;;;;;;;4.93;1.23;;;;;;;27.26;19.49;97978.59;4944910;28;20073;-75
2022/09/17 10:01:19;;;;;;;8.38;1.10;;;;;;;27.66;19.06;97966.00;4949983;28;20057;-85
2022/09/17 10:03:47;;;;;;;2.83;1.13;;;;;;;28.72;17.66;97967.69;4935110;28;20046;-80
2022/09/17 10:06:16;;;;;;;4.95;1.20;;;;;;;27.34;18.65;97982.56;4995703;28;20204;-79
2022/09/17 10:08:54;;;;;;;3.42;0.85;;;;;;;28.22;17.45;97998.22;4943961;28;20043;-76
2022/09/17 10:11:21;;;;;;;6.75;1.25;;;;;;;27.54;18.75;97982.06;4942702;28;20054;-80
2022/09/17 10:13:47;;;;;;;3.78;1.02;;;;;;;26.56;20.25;97969.09;4973616;28;20046;-81
2022/09/17 10:16:24;;;;;;;3.13;1.00;;;;;;;24.83;20.65;97964.94;4974879;28;20079;-83
2022/09/17 10:19:10;;;;;;;6.72;0.98;;;;;;;24.88;21.56;97953.19;4955316;28;20100;-79
2022/09/17 10:21:58;;;;;;;6.38;1.20;;;;;;;24.91;22.20;97977.06;4940575;28;20042;-83
2022/09/17 10:24:30;;;;;;;6.97;1.42;;;;;;;25.64;21.79;97989.94;4972607;28;20058;-80
2022/09/17 10:27:21;;;;;;;4.05;1.50;;;;;;;27.20;19.58;97989.91;4956258;28;20067;-84
2022/09/17 10:29:50;;;;;;;4.07;1.25;;;;;;;28.63;17.71;97990.63;4977317;28;20960;-85
2022/09/17 10:32:20;;;;;;;2.55;1.08;;;;;;;30.82;16.56;97973.09;4922457;28;20133;-81
2022/09/17 10:34:58;;;;;;;4.35;1.33;;;;;;;32.17;14.34;98010.97;4930984;28;20061;-85
2022/09/17 10:37:45;;;;;;;2.58;1.45;;;;;;;30.77;15.60;98009.72;4944954;28;20046;-81
2022/09/17 10:40:18;;;;;;;5.95;1.40;;;;;;;31.27;15.63;98009.81;4954791;28;20054;-85
2022/09/17 10:43:15;;;;;;;3.95;1.42;;;;;;;31.13;14.89;97999.09;4933334;28;20085;-83
2022/09/17 10:45:44;;;;;;;2.58;1.10;;;;;;;31.73;15.54;98017.94;4946169;28;20043;-82
2022/09/17 10:48:19;;;;;;;2.75;1.10;;;;;;;30.32;16.68;97996.75;4960307;28;20046;-81
2022/09/17 10:50:51;;;;;;;5.07;1.15;;;;;;;30.67;15.71;97999.09;4927539;28;20133;-79
2022/09/17 10:53:17;;;;;;;4.75;1.50;;;;;;;30.48;15.71;97995.91;4944131;28;20105;-83
2022/09/17 10:56:05;;;;;;;6.80;1.52;;;;;;;32.22;14.56;98003.34;4932232;28;20555;-82
2022/09/17 10:58:40;;;;;;;6.63;1.10;;;;;;;31.92;14.88;98009.28;4946298;28;20093;-82
2022/09/17 11:01:43;;;;;;;4.53;1.20;;;;;;;30.21;15.36;98020.13;4929580;28;20102;-85
2022/09/17 11:04:20;;;;;;;6.10;1.30;;;;;;;31.22;15.71;98028.38;4959506;28;20461;-84
2022/09/17 11:07:23;;;;;;;7.20;1.63;;;;;;;30.39;15.43;98029.94;4965385;28;20137;-84
2022/09/17 11:10:02;;;;;;;5.03;1.10;;;;;;;31.27;15.56;98018.06;4948124;28;20054;-79
2022/09/17 11:12:51;;;;;;;4.25;1.30;;;;;;;30.35;16.17;97960.50;4965230;28;20104;-77
2022/09/17 11:16:10;;;;;;;3.92;1.15;;;;;;;30.64;15.94;97996.19;4947053;28;20082;-81
2022/09/17 11:19:10;;;;;;;5.72;1.20;;;;;;;30.83;16.24;98013.09;4952864;28;20070;-80
2022/09/17 11:21:38;;;;;;;8.60;1.45;;;;;;;31.17;15.62;98003.91;4956952;28;20110;-80
2022/09/17 11:24:27;;;;;;;4.63;1.15;;;;;;;31.07;15.31;98005.06;4958782;28;20046;-83
2022/09/17 11:27:19;;;;;;;3.22;1.20;;;;;;;29.33;16.95;97994.94;4963793;28;20065;-82
2022/09/17 11:30:08;;;;;;;4.93;1.33;;;;;;;27.27;19.14;98001.22;4937905;28;20042;-82
2022/09/17 11:32:40;;;;;;;3.95;1.30;;;;;;;26.32;20.26;97969.25;4929473;28;20476;-79
2022/09/17 11:35:48;;;;;;;3.40;1.15;;;;;;;24.45;21.19;98015.50;4944980;28;20081;-81
2022/09/17 11:38:32;;;;;;;3.95;1.08;;;;;;;24.02;22.75;97991.22;4916308;28;20042;-82
2022/09/17 11:41:03;;;;;;;4.22;1.10;;;;;;;23.93;22.45;97990.16;4942743;28;20050;-74
2022/09/17 11:43:33;;;;;;;4.72;1.20;;;;;;;23.74;22.63;97997.38;4960719;28;20109;-77
2022/09/17 11:46:01;;;;;;;4.32;1.20;;;;;;;23.50;23.99;98002.69;4944402;28;20054;-75
2022/09/17 11:48:41;;;;;;;3.63;1.17;;;;;;;23.60;23.46;97999.09;4945032;28;20042;-79
2022/09/17 11:51:34;;;;;;;2.03;0.90;;;;;;;23.16;24.26;98002.56;4968531;28;20042;-78